createdAt,value
2022-09-05T00:01:49.471Z,19.70
2022-09-05T00:05:14.293Z,19.70
2022-09-05T00:08:26.029Z,19.70
2022-09-05T00:11:43.043Z,19.70
2022-09-05T00:15:16.396Z,19.70
2022-09-05T00:23:33.310Z,19.70
2022-09-05T00:24:24.785Z,19.70
2022-09-05T00:26:13.475Z,19.70
2022-09-05T00:31:07.635Z,19.70
2022-09-05T00:33:33.937Z,19.70
2022-09-05T00:36:46.594Z,19.70
2022-09-05T00:40:22.695Z,19.70
2022-09-05T00:43:33.178Z,19.70
2022-09-05T00:46:44.809Z,19.70
2022-09-05T00:50:00.116Z,19.70
2022-09-05T00:53:15.651Z,19.70
2022-09-05T00:56:41.221Z,19.70
2022-09-05T01:00:17.540Z,19.70
2022-09-05T01:03:46.770Z,19.70
2022-09-05T01:07:26.407Z,19.70
2022-09-05T01:10:43.865Z,19.70
2022-09-05T01:14:01.213Z,19.70
2022-09-05T01:17:34.156Z,19.70
2022-09-05T01:21:07.295Z,19.70
2022-09-05T01:24:33.791Z,19.70
2022-09-05T01:29:13.364Z,19.70
2022-09-05T01:31:32.627Z,19.70
2022-09-05T01:34:54.280Z,19.70
2022-09-05T01:38:05.454Z,19.70
2022-09-05T01:41:21.910Z,19.70
2022-09-05T01:44:47.223Z,19.70
2022-09-05T01:48:02.804Z,19.70
2022-09-05T01:51:29.381Z,19.80
2022-09-05T01:54:48.875Z,19.80
2022-09-05T01:58:03.907Z,19.80
2022-09-05T02:01:25.277Z,19.70
2022-09-05T02:05:12.162Z,19.70
2022-09-05T02:08:58.297Z,19.70
2022-09-05T02:12:10.652Z,19.70
2022-09-05T02:15:22.864Z,19.80
2022-09-05T02:18:46.349Z,19.80
2022-09-05T02:22:01.973Z,19.70
2022-09-05T02:26:00.761Z,19.70
2022-09-05T02:28:49.669Z,19.70
2022-09-05T02:32:00.189Z,19.70
2022-09-05T02:35:19.162Z,19.70
2022-09-05T02:41:29.109Z,19.70
2022-09-05T02:45:14.496Z,19.70
2022-09-05T02:45:42.521Z,19.70
2022-09-05T02:48:55.745Z,19.70
2022-09-05T02:57:27.590Z,19.70
2022-09-05T02:57:38.558Z,19.70
2022-09-05T02:59:36.165Z,19.70
2022-09-05T03:03:05.596Z,19.70
2022-09-05T03:06:34.218Z,19.70
2022-09-05T03:09:56.809Z,19.70
2022-09-05T03:13:48.810Z,19.70
2022-09-05T03:17:45.200Z,19.70
2022-09-05T03:21:29.805Z,19.70
2022-09-05T03:25:15.163Z,19.70
2022-09-05T03:28:46.466Z,19.70
2022-09-05T03:32:30.363Z,19.60
2022-09-05T03:36:16.716Z,19.70
2022-09-05T03:40:15.267Z,19.70
2022-09-05T03:43:58.088Z,19.60
2022-09-05T03:47:34.278Z,19.70
2022-09-05T03:57:01.789Z,19.60
2022-09-05T03:57:16.233Z,19.70
2022-09-05T03:58:57.064Z,19.60
2022-09-05T04:06:07.633Z,19.60
2022-09-05T04:08:23.638Z,19.60
2022-09-05T04:09:22.714Z,19.60
2022-09-05T04:12:51.358Z,19.60
2022-09-05T04:16:10.896Z,19.60
2022-09-05T04:19:25.910Z,19.60
2022-09-05T04:22:42.968Z,19.60
2022-09-05T04:26:11.143Z,19.60
2022-09-05T04:29:24.104Z,19.60
2022-09-05T04:32:41.046Z,19.60
2022-09-05T04:35:58.613Z,19.70
2022-09-05T04:39:24.568Z,19.70
2022-09-05T04:42:31.979Z,19.60
2022-09-05T04:45:42.729Z,19.60
2022-09-05T04:48:57.168Z,19.60
2022-09-05T04:52:30.965Z,19.60
2022-09-05T04:55:50.486Z,19.60
2022-09-05T05:00:27.358Z,19.60
2022-09-05T05:06:18.516Z,19.60
2022-09-05T05:09:44.861Z,19.60
2022-09-05T05:17:57.398Z,19.60
2022-09-05T05:18:15.972Z,19.60
2022-09-05T05:20:42.148Z,19.60
2022-09-05T05:23:42.834Z,19.60
2022-09-05T05:26:57.075Z,19.60
2022-09-05T05:30:07.959Z,19.60
2022-09-05T05:33:25.864Z,19.60
2022-09-05T05:36:37.146Z,19.60
2022-09-05T05:39:50.286Z,19.60
2022-09-05T05:43:16.223Z,19.60
2022-09-05T05:46:31.936Z,19.60
2022-09-05T05:49:52.003Z,19.50
2022-09-05T05:53:31.961Z,19.60
2022-09-05T05:56:54.702Z,19.60
2022-09-05T06:00:24.504Z,19.50
2022-09-05T06:03:55.160Z,19.40
2022-09-05T06:07:10.264Z,19.40
2022-09-05T06:15:02.192Z,19.50
2022-09-05T06:15:08.737Z,19.50
2022-09-05T06:19:04.756Z,19.50
2022-09-05T06:26:00.761Z,19.50
2022-09-05T06:29:18.564Z,19.50
2022-09-05T06:32:38.138Z,19.50
2022-09-05T06:36:11.937Z,19.60
2022-09-05T06:39:29.841Z,19.50
2022-09-05T06:42:52.354Z,19.50
2022-09-05T06:46:54.375Z,19.50
2022-09-05T06:50:27.522Z,19.50
2022-09-05T06:54:01.141Z,19.50
2022-09-05T06:57:38.663Z,19.50
2022-09-05T07:00:55.335Z,19.40
2022-09-05T07:05:23.619Z,19.50
2022-09-05T07:07:48.050Z,19.50
2022-09-05T07:11:02.922Z,19.50
2022-09-05T07:14:25.493Z,19.50
2022-09-05T07:18:08.554Z,19.50
2022-09-05T07:21:26.694Z,19.50
2022-09-05T07:24:54.453Z,19.50
2022-09-05T07:28:28.751Z,19.50
2022-09-05T07:31:37.943Z,19.50
2022-09-05T07:34:48.848Z,19.60
2022-09-05T07:38:04.108Z,19.50
2022-09-05T07:41:18.289Z,19.60
2022-09-05T07:44:28.723Z,19.50
2022-09-05T07:47:39.250Z,19.50
2022-09-05T07:55:12.407Z,19.50
2022-09-05T07:57:01.033Z,19.50
2022-09-05T07:57:51.411Z,19.50
2022-09-05T08:00:59.969Z,19.60
2022-09-05T08:04:06.889Z,19.50
2022-09-05T08:07:49.848Z,19.60
2022-09-05T08:11:24.934Z,19.50
2022-09-05T08:14:45.310Z,19.50
2022-09-05T08:18:07.053Z,19.50
2022-09-05T08:21:27.807Z,19.50
2022-09-05T08:24:40.688Z,19.60
2022-09-05T08:28:01.122Z,19.60
2022-09-05T08:31:12.482Z,19.60
2022-09-05T08:34:31.510Z,19.60
2022-09-05T08:37:52.638Z,19.50
2022-09-05T08:41:09.917Z,19.60
2022-09-05T08:46:43.692Z,19.60
2022-09-05T08:47:53.266Z,19.60
2022-09-05T08:51:29.666Z,19.50
2022-09-05T08:54:44.825Z,19.40
2022-09-05T08:58:18.500Z,19.40
2022-09-05T09:01:39.517Z,19.30
2022-09-05T09:05:14.193Z,19.40
2022-09-05T09:08:34.857Z,19.40
2022-09-05T09:11:49.820Z,19.40
2022-09-05T09:15:00.747Z,19.40
2022-09-05T09:18:15.292Z,19.10
2022-09-05T09:21:29.484Z,18.60
2022-09-05T09:24:43.182Z,18.00
2022-09-05T09:28:48.630Z,17.90
2022-09-05T09:32:06.668Z,17.60
2022-09-05T09:35:24.666Z,17.70
2022-09-05T09:38:43.205Z,17.90
2022-09-05T09:42:00.956Z,17.80
2022-09-05T09:45:28.512Z,17.90
2022-09-05T09:49:04.491Z,17.90
2022-09-05T09:53:16.223Z,17.80
2022-09-05T09:56:59.735Z,17.90
2022-09-05T10:00:14.797Z,17.90
2022-09-05T10:08:32.208Z,18.30
2022-09-05T10:10:58.713Z,18.50
2022-09-05T10:11:54.318Z,18.80
2022-09-05T10:15:30.232Z,18.80
2022-09-05T10:18:51.001Z,18.60
2022-09-05T10:22:37.860Z,18.80
2022-09-05T10:26:19.778Z,18.70
2022-09-05T10:29:43.886Z,19.00
2022-09-05T10:35:15.100Z,19.00
2022-09-05T10:36:57.931Z,18.90
2022-09-05T10:40:10.050Z,19.00
2022-09-05T10:43:25.469Z,18.80
2022-09-05T10:46:56.738Z,18.70
2022-09-05T10:50:13.599Z,18.20
2022-09-05T10:53:28.224Z,18.10
2022-09-05T10:56:50.090Z,18.20
2022-09-05T11:01:56.048Z,17.80
2022-09-05T11:03:46.807Z,17.60
2022-09-05T11:06:56.545Z,17.50
2022-09-05T11:10:08.189Z,17.40
2022-09-05T11:13:29.756Z,17.70
2022-09-05T11:16:48.385Z,17.80
2022-09-05T11:20:23.669Z,17.60
2022-09-05T11:23:48.700Z,17.80
2022-09-05T11:27:25.333Z,17.60
2022-09-05T11:30:40.647Z,17.40
2022-09-05T11:39:52.769Z,17.80
2022-09-05T11:40:06.174Z,18.30
2022-09-05T11:42:30.951Z,18.80
2022-09-05T11:46:10.536Z,19.10
2022-09-05T11:49:44.936Z,19.20
2022-09-05T11:53:31.153Z,19.20
2022-09-05T11:57:32.558Z,18.90
2022-09-05T12:00:34.888Z,18.50
2022-09-05T12:04:05.747Z,18.40
2022-09-05T12:07:47.022Z,18.30
2022-09-05T12:11:05.639Z,18.30
2022-09-05T12:14:33.474Z,18.10
2022-09-05T12:17:54.124Z,18.20
2022-09-05T12:21:19.650Z,18.60
2022-09-05T12:25:24.451Z,18.70
2022-09-05T12:29:26.479Z,18.80
2022-09-05T12:32:49.589Z,18.80
2022-09-05T12:38:44.317Z,18.70
2022-09-05T12:40:58.474Z,18.60
2022-09-05T12:42:25.630Z,18.20
2022-09-05T12:45:45.425Z,18.50
2022-09-05T12:49:01.482Z,18.30
2022-09-05T12:52:20.399Z,18.20
2022-09-05T12:55:33.721Z,18.20
2022-09-05T13:03:02.011Z,18.30
2022-09-05T13:03:12.853Z,18.50
2022-09-05T13:05:52.982Z,18.50
2022-09-05T13:09:04.980Z,18.20
2022-09-05T13:14:59.081Z,18.10
2022-09-05T13:15:53.471Z,18.50
2022-09-05T13:19:07.941Z,18.90
2022-09-05T13:22:17.916Z,18.80
2022-09-05T13:25:27.401Z,18.90
2022-09-05T13:28:43.191Z,18.90
2022-09-05T13:37:58.389Z,18.80
2022-09-05T13:38:11.857Z,19.00
2022-09-05T13:39:07.891Z,18.90
2022-09-05T13:42:18.684Z,18.80
2022-09-05T13:45:27.406Z,18.90
2022-09-05T13:52:29.201Z,18.80
2022-09-05T13:55:44.157Z,18.90
2022-09-05T13:58:57.167Z,18.70
2022-09-05T14:02:31.522Z,18.40
2022-09-05T14:05:48.185Z,18.60
2022-09-05T14:12:38.965Z,18.80
2022-09-05T14:15:52.862Z,18.90
2022-09-05T14:19:18.498Z,19.00
2022-09-05T14:22:44.145Z,19.00
2022-09-05T14:25:56.520Z,19.00
2022-09-05T14:29:14.311Z,19.20
2022-09-05T14:37:39.712Z,19.40
2022-09-05T14:37:45.117Z,19.30
2022-09-05T14:39:51.167Z,19.40
2022-09-05T14:43:02.964Z,19.50
2022-09-05T14:46:24.249Z,19.50
2022-09-05T14:49:49.318Z,19.50
2022-09-05T14:52:43.711Z,19.50
2022-09-05T14:55:36.897Z,19.50
2022-09-05T15:02:49.862Z,19.60
2022-09-05T15:02:58.672Z,19.60
2022-09-05T15:05:11.268Z,19.60
2022-09-05T15:08:03.980Z,19.60
2022-09-05T15:12:17.200Z,19.60
2022-09-05T15:14:24.037Z,19.60
2022-09-05T15:17:22.906Z,19.50
2022-09-05T15:20:11.756Z,19.20
2022-09-05T15:23:03.662Z,18.60
2022-09-05T15:26:07.046Z,18.50
2022-09-05T15:29:14.069Z,18.90
2022-09-05T15:32:14.833Z,19.20
2022-09-05T15:35:03.650Z,19.00
2022-09-05T15:37:51.828Z,19.00
2022-09-05T15:40:40.284Z,19.10
2022-09-05T15:43:28.392Z,19.30
2022-09-05T15:46:24.060Z,19.30
2022-09-05T15:49:29.365Z,19.40
2022-09-05T15:52:38.489Z,19.50
2022-09-05T15:55:28.172Z,19.50
2022-09-05T15:58:18.524Z,19.50
2022-09-05T16:01:31.226Z,19.50
2022-09-05T16:08:31.388Z,19.50
2022-09-05T16:10:33.561Z,19.50
2022-09-05T16:11:05.437Z,19.50
2022-09-05T16:14:16.778Z,19.50
2022-09-05T16:23:18.192Z,19.50
2022-09-05T16:23:24.936Z,19.50
2022-09-05T16:23:42.727Z,19.50
2022-09-05T16:26:34.797Z,19.50
2022-09-05T16:29:26.724Z,19.60
2022-09-05T16:32:21.979Z,19.50
2022-09-05T16:35:14.273Z,19.50
2022-09-05T16:38:12.988Z,19.50
2022-09-05T16:41:06.802Z,19.20
2022-09-05T16:43:59.883Z,19.10
2022-09-05T16:47:05.724Z,19.30
2022-09-05T16:50:03.354Z,19.40
2022-09-05T16:53:16.008Z,19.50
2022-09-05T16:56:17.808Z,19.50
2022-09-05T16:59:11.085Z,19.50
2022-09-05T17:02:10.440Z,19.60
2022-09-05T17:05:15.252Z,19.60
2022-09-05T17:08:09.143Z,19.60
2022-09-05T17:11:06.243Z,19.60
2022-09-05T17:14:15.219Z,19.60
2022-09-05T17:17:20.189Z,19.50
2022-09-05T17:20:17.506Z,19.60
2022-09-05T17:28:30.012Z,19.60
2022-09-05T17:29:24.589Z,19.50
2022-09-05T17:31:22.075Z,19.60
2022-09-05T17:33:18.664Z,19.60
2022-09-05T17:36:16.425Z,19.60
2022-09-05T17:39:16.162Z,19.60
2022-09-05T17:42:16.878Z,19.60
2022-09-05T17:45:17.224Z,19.60
2022-09-05T17:48:05.940Z,19.60
2022-09-05T17:50:58.799Z,19.60
2022-09-05T17:54:24.210Z,19.60
2022-09-05T17:57:40.208Z,19.60
2022-09-05T18:01:01.244Z,19.60
2022-09-05T18:04:16.879Z,19.60
2022-09-05T18:07:58.594Z,19.70
2022-09-05T18:11:02.454Z,19.60
2022-09-05T18:14:05.067Z,19.60
2022-09-05T18:17:36.997Z,19.40
2022-09-05T18:20:12.156Z,19.10
2022-09-05T18:23:39.404Z,19.00
2022-09-05T18:26:30.942Z,19.20
2022-09-05T18:29:28.737Z,19.30
2022-09-05T18:32:45.549Z,19.30
2022-09-05T18:35:38.287Z,19.30
2022-09-05T18:38:51.160Z,19.30
2022-09-05T18:41:38.884Z,19.40
2022-09-05T18:44:28.871Z,19.40
2022-09-05T18:47:33.083Z,19.40
2022-09-05T18:50:27.889Z,19.40
2022-09-05T18:53:25.429Z,19.40
2022-09-05T18:56:27.288Z,19.40
2022-09-05T18:59:24.240Z,19.40
2022-09-05T19:02:26.925Z,19.40
2022-09-05T19:05:41.864Z,19.30
2022-09-05T19:08:33.896Z,19.30
2022-09-05T19:11:28.625Z,19.30
2022-09-05T19:14:35.501Z,19.30
2022-09-05T19:17:33.070Z,19.20
2022-09-05T19:20:32.947Z,19.10
2022-09-05T19:23:24.257Z,19.00
2022-09-05T19:26:14.344Z,19.10
2022-09-05T19:36:55.588Z,19.30
2022-09-05T19:36:58.724Z,19.20
2022-09-05T19:37:12.707Z,19.20
2022-09-05T19:40:18.424Z,19.30
2022-09-05T19:47:43.862Z,19.40
2022-09-05T19:47:51.727Z,19.40
2022-09-05T19:51:18.722Z,19.30
2022-09-05T19:54:23.324Z,19.30
2022-09-05T19:57:19.517Z,19.30
2022-09-05T20:00:09.591Z,19.40
2022-09-05T20:03:02.463Z,19.40
2022-09-05T20:05:51.595Z,19.40
2022-09-05T20:08:40.040Z,19.40
2022-09-05T20:11:37.249Z,19.40
2022-09-05T20:14:36.988Z,19.40
2022-09-05T20:17:29.304Z,19.40
2022-09-05T20:20:22.621Z,19.40
2022-09-05T20:23:11.441Z,19.50
2022-09-05T20:26:00.814Z,19.40
2022-09-05T20:28:54.606Z,19.40
2022-09-05T20:31:45.215Z,19.40
2022-09-05T20:36:17.090Z,19.40
2022-09-05T20:43:10.384Z,19.40
2022-09-05T20:43:21.746Z,19.50
2022-09-05T20:44:22.390Z,19.40
2022-09-05T20:54:04.298Z,19.50
2022-09-05T20:54:09.987Z,19.50
2022-09-05T20:54:32.224Z,19.50
2022-09-05T20:56:53.329Z,19.50
2022-09-05T20:59:47.512Z,19.50
2022-09-05T21:02:37.453Z,19.50
2022-09-05T21:05:28.452Z,19.50
2022-09-05T21:08:32.743Z,19.50
2022-09-05T21:11:31.190Z,19.50
2022-09-05T21:14:21.426Z,19.50
2022-09-05T21:17:15.696Z,19.40
2022-09-05T21:20:09.891Z,19.50
2022-09-05T21:22:58.317Z,19.50
2022-09-05T21:25:52.511Z,19.50
2022-09-05T21:28:44.342Z,19.50
2022-09-05T21:31:42.968Z,19.50
2022-09-05T21:34:34.439Z,19.50
2022-09-05T21:37:24.578Z,19.50
2022-09-05T21:40:13.595Z,19.60
2022-09-05T21:47:35.316Z,19.60
2022-09-05T21:47:47.587Z,19.60
2022-09-05T21:49:22.799Z,19.60
2022-09-05T21:52:11.988Z,19.60
2022-09-05T21:59:20.935Z,19.60
2022-09-05T21:59:24.927Z,19.60
2022-09-05T22:01:50.738Z,19.60
2022-09-05T22:04:41.261Z,19.60
2022-09-05T22:07:33.001Z,19.60
2022-09-05T22:10:23.393Z,19.60
2022-09-05T22:13:24.472Z,19.60
2022-09-05T22:16:14.890Z,19.60
2022-09-05T22:19:03.751Z,19.70
2022-09-05T22:21:54.642Z,19.60
2022-09-05T22:24:46.641Z,19.60
2022-09-05T22:27:38.630Z,19.60
2022-09-05T22:30:28.419Z,19.60
2022-09-05T22:33:17.083Z,19.60
2022-09-05T22:36:06.023Z,19.60
2022-09-05T22:38:54.727Z,19.60
2022-09-05T22:41:43.683Z,19.60
2022-09-05T22:44:33.538Z,19.60
2022-09-05T22:47:21.940Z,19.60
2022-09-05T22:50:10.423Z,19.60
2022-09-05T22:52:59.127Z,19.60
2022-09-05T22:55:47.197Z,19.50
2022-09-05T22:58:39.132Z,19.50
2022-09-05T23:01:28.764Z,19.50
2022-09-05T23:04:17.377Z,19.50
2022-09-05T23:07:05.793Z,19.60
2022-09-05T23:09:54.523Z,19.60
2022-09-05T23:12:42.751Z,19.60
2022-09-05T23:15:31.461Z,19.60
2022-09-05T23:18:20.950Z,19.60
2022-09-05T23:21:11.815Z,19.60
2022-09-05T23:24:00.225Z,19.60
2022-09-05T23:26:48.720Z,19.60
2022-09-05T23:29:37.872Z,19.50
2022-09-05T23:32:26.549Z,19.50
2022-09-05T23:35:17.307Z,19.50
2022-09-05T23:38:10.589Z,19.50
2022-09-05T23:41:02.924Z,19.50
2022-09-05T23:43:51.595Z,19.50
2022-09-05T23:46:40.672Z,19.50
2022-09-05T23:49:28.966Z,19.50
2022-09-05T23:52:18.742Z,19.50
2022-09-05T23:55:08.354Z,19.50
2022-09-05T23:57:58.809Z,19.50
